createdAt,value
2018-12-14T00:01:25.354Z,4.27
2018-12-14T00:04:00.919Z,4.80
2018-12-14T00:06:36.577Z,5.40
2018-12-14T00:09:10.190Z,6.53
2018-12-14T00:11:45.794Z,5.63
2018-12-14T00:14:20.946Z,5.00
2018-12-14T00:16:54.797Z,5.43
2018-12-14T00:19:28.270Z,5.77
2018-12-14T00:22:10.018Z,4.87
2018-12-14T00:24:43.791Z,5.13
2018-12-14T00:27:17.631Z,5.93
2018-12-14T00:29:58.231Z,5.70
2018-12-14T00:32:32.846Z,5.93
2018-12-14T00:35:06.523Z,5.73
2018-12-14T00:37:40.225Z,6.03
2018-12-14T00:40:13.932Z,5.90
2018-12-14T00:42:47.399Z,5.67
2018-12-14T00:45:20.826Z,5.30
2018-12-14T00:47:54.552Z,5.47
2018-12-14T00:50:28.200Z,5.60
2018-12-14T00:53:02.020Z,5.80
2018-12-14T00:55:35.910Z,5.70
2018-12-14T00:58:09.652Z,5.43
2018-12-14T01:00:43.177Z,6.00
2018-12-14T01:03:16.782Z,6.17
2018-12-14T01:05:50.794Z,5.67
2018-12-14T01:08:24.327Z,6.20
2018-12-14T01:10:57.773Z,5.97
2018-12-14T01:13:31.357Z,6.03
2018-12-14T01:16:04.955Z,5.80
2018-12-14T01:18:38.857Z,5.67
2018-12-14T01:21:12.391Z,6.40
2018-12-14T01:26:24.654Z,6.53
2018-12-14T01:28:58.298Z,6.00
2018-12-14T01:31:31.984Z,6.60
2018-12-14T01:34:05.568Z,6.07
2018-12-14T01:36:39.437Z,5.93
2018-12-14T01:39:13.036Z,6.50
2018-12-14T01:41:46.607Z,5.80
2018-12-14T01:44:20.254Z,6.37
2018-12-14T01:46:53.870Z,5.90
2018-12-14T01:49:27.524Z,5.80
2018-12-14T01:52:01.249Z,6.03
2018-12-14T01:54:34.775Z,5.87
2018-12-14T01:57:08.549Z,6.07
2018-12-14T01:59:42.133Z,6.53
2018-12-14T02:02:15.765Z,6.63
2018-12-14T02:04:49.489Z,6.63
2018-12-14T02:07:23.015Z,6.40
2018-12-14T02:09:56.518Z,6.97
2018-12-14T02:12:30.153Z,6.30
2018-12-14T02:15:04.430Z,5.97
2018-12-14T02:17:38.376Z,6.57
2018-12-14T02:20:11.978Z,5.93
2018-12-14T02:22:45.649Z,6.37
2018-12-14T02:25:19.320Z,6.90
2018-12-14T02:27:52.850Z,6.17
2018-12-14T02:30:44.238Z,6.37
2018-12-14T02:33:17.901Z,6.87
2018-12-14T02:35:51.551Z,6.67
2018-12-14T02:38:25.278Z,6.60
2018-12-14T02:40:59.218Z,6.97
2018-12-14T02:43:32.891Z,7.30
2018-12-14T02:46:06.665Z,6.47
2018-12-14T02:48:40.229Z,6.90
2018-12-14T02:51:14.065Z,6.30
2018-12-14T02:53:47.433Z,7.23
2018-12-14T02:56:21.019Z,6.90
2018-12-14T02:58:54.608Z,6.67
2018-12-14T03:01:28.368Z,6.87
2018-12-14T03:04:02.173Z,6.33
2018-12-14T03:06:35.671Z,6.57
2018-12-14T03:09:09.183Z,6.10
2018-12-14T03:11:42.717Z,6.10
2018-12-14T03:14:16.379Z,6.53
2018-12-14T03:16:50.412Z,6.73
2018-12-14T03:19:24.135Z,6.23
2018-12-14T03:21:57.736Z,6.80
2018-12-14T03:24:31.230Z,6.60
2018-12-14T03:27:04.898Z,6.13
2018-12-14T03:29:38.498Z,6.30
2018-12-14T03:32:12.143Z,6.57
2018-12-14T03:34:45.629Z,6.50
2018-12-14T03:37:19.159Z,6.40
2018-12-14T03:39:52.625Z,7.30
2018-12-14T03:42:26.147Z,6.93
2018-12-14T03:45:00.034Z,6.63
2018-12-14T03:47:34.014Z,7.30
2018-12-14T03:50:07.959Z,6.67
2018-12-14T03:52:41.548Z,7.00
2018-12-14T03:55:14.981Z,7.30
2018-12-14T03:57:48.872Z,6.40
2018-12-14T04:00:22.559Z,7.13
2018-12-14T04:02:56.637Z,6.25
2018-12-14T04:05:30.414Z,6.20
2018-12-14T04:08:03.913Z,6.80
2018-12-14T04:10:37.388Z,7.30
2018-12-14T04:13:10.917Z,6.97
2018-12-14T04:15:44.697Z,7.00
2018-12-14T04:18:18.382Z,6.77
2018-12-14T04:20:51.877Z,6.57
2018-12-14T04:23:25.373Z,6.70
2018-12-14T04:25:58.872Z,6.90
2018-12-14T04:28:32.546Z,6.53
2018-12-14T04:31:06.046Z,6.63
2018-12-14T04:33:39.833Z,7.20
2018-12-14T04:36:13.658Z,6.23
2018-12-14T04:38:49.202Z,6.00
2018-12-14T04:41:22.746Z,7.20
2018-12-14T04:43:56.238Z,6.60
2018-12-14T04:46:29.941Z,7.23
2018-12-14T04:49:03.699Z,7.33
2018-12-14T04:51:37.083Z,6.63
2018-12-14T04:54:10.610Z,7.63
2018-12-14T04:56:44.163Z,7.13
2018-12-14T04:59:17.668Z,7.17
2018-12-14T05:01:51.416Z,7.57
2018-12-14T05:04:25.196Z,7.13
2018-12-14T05:06:59.106Z,6.93
2018-12-14T05:09:33.076Z,7.23
2018-12-14T05:12:06.862Z,8.07
2018-12-14T05:14:40.342Z,6.73
2018-12-14T05:17:14.004Z,7.67
2018-12-14T05:19:47.503Z,7.80
2018-12-14T05:22:21.038Z,7.23
2018-12-14T05:24:54.743Z,7.27
2018-12-14T05:27:28.277Z,7.67
2018-12-14T05:30:02.017Z,7.07
2018-12-14T05:32:36.587Z,7.07
2018-12-14T05:35:10.141Z,5.93
2018-12-14T05:37:43.866Z,7.27
2018-12-14T05:40:18.878Z,6.73
2018-12-14T05:42:52.887Z,6.50
2018-12-14T05:45:26.382Z,7.20
2018-12-14T05:48:00.164Z,8.17
2018-12-14T05:50:33.848Z,8.00
2018-12-14T05:53:07.558Z,7.63
2018-12-14T05:55:41.226Z,7.70
2018-12-14T05:58:14.901Z,7.60
2018-12-14T06:00:48.475Z,6.77
2018-12-14T06:03:22.031Z,7.07
2018-12-14T06:05:55.636Z,6.57
2018-12-14T06:08:29.210Z,7.60
2018-12-14T06:11:02.709Z,7.87
2018-12-14T06:13:36.412Z,7.17
2018-12-14T06:16:10.041Z,7.13
2018-12-14T06:18:43.718Z,7.67
2018-12-14T06:21:17.267Z,7.67
2018-12-14T06:23:50.979Z,7.13
2018-12-14T06:26:24.643Z,7.33
2018-12-14T06:28:58.186Z,7.13
2018-12-14T06:31:38.853Z,6.77
2018-12-14T06:34:12.995Z,7.23
2018-12-14T06:36:46.664Z,7.47
2018-12-14T06:39:21.556Z,8.20
2018-12-14T06:41:55.739Z,7.40
2018-12-14T06:44:29.378Z,7.03
2018-12-14T06:47:03.281Z,7.60
2018-12-14T06:49:36.729Z,7.93
2018-12-14T06:52:10.638Z,8.20
2018-12-14T06:54:44.266Z,8.67
2018-12-14T06:57:17.998Z,8.37
2018-12-14T06:59:51.982Z,8.47
2018-12-14T07:02:25.623Z,10.07
2018-12-14T07:04:59.282Z,9.57
2018-12-14T07:07:33.011Z,8.17
2018-12-14T07:10:06.634Z,8.13
2018-12-14T07:12:40.843Z,7.30
2018-12-14T07:15:14.921Z,7.80
2018-12-14T07:17:48.367Z,7.27
2018-12-14T07:20:21.868Z,7.33
2018-12-14T07:22:55.968Z,8.63
2018-12-14T07:25:29.490Z,7.57
2018-12-14T07:28:03.931Z,7.50
2018-12-14T07:30:37.458Z,8.07
2018-12-14T07:33:18.114Z,6.90
2018-12-14T07:35:52.022Z,7.63
2018-12-14T07:38:25.800Z,7.33
2018-12-14T07:40:59.617Z,8.20
2018-12-14T07:43:33.222Z,6.93
2018-12-14T07:46:06.773Z,7.50
2018-12-14T07:48:40.476Z,6.93
2018-12-14T07:51:14.284Z,7.03
2018-12-14T07:53:47.992Z,7.43
2018-12-14T07:56:21.547Z,7.83
2018-12-14T07:58:55.789Z,7.07
2018-12-14T08:01:29.691Z,6.93
2018-12-14T08:04:04.319Z,6.47
2018-12-14T08:06:37.810Z,7.10
2018-12-14T08:09:11.226Z,7.00
2018-12-14T08:11:45.166Z,7.13
2018-12-14T08:14:18.758Z,6.93
2018-12-14T08:16:52.749Z,6.60
2018-12-14T08:19:26.336Z,7.10
2018-12-14T08:21:59.925Z,7.13
2018-12-14T08:24:33.679Z,6.80
2018-12-14T08:27:07.749Z,6.67
2018-12-14T08:29:41.679Z,6.63
2018-12-14T08:34:51.511Z,7.23
2018-12-14T08:37:25.401Z,7.30
2018-12-14T08:39:59.025Z,6.30
2018-12-14T08:42:32.466Z,7.20
2018-12-14T08:45:06.360Z,6.70
2018-12-14T08:47:39.930Z,6.87
2018-12-14T08:50:13.690Z,6.67
2018-12-14T08:52:47.332Z,6.13
2018-12-14T08:55:20.766Z,6.73
2018-12-14T08:57:54.821Z,6.23
2018-12-14T09:00:28.497Z,6.80
2018-12-14T09:03:02.285Z,6.73
2018-12-14T09:05:36.002Z,6.10
2018-12-14T09:08:09.586Z,6.10
2018-12-14T09:10:43.037Z,6.70
2018-12-14T09:13:16.889Z,7.40
2018-12-14T09:15:50.365Z,6.10
2018-12-14T09:18:23.885Z,6.90
2018-12-14T09:21:01.040Z,5.70
2018-12-14T09:23:33.161Z,6.13
2018-12-14T09:26:06.734Z,6.08
2018-12-14T09:28:47.634Z,6.07
2018-12-14T09:31:21.447Z,5.33
2018-12-14T09:33:55.592Z,5.43
2018-12-14T09:36:29.374Z,9.23
2018-12-14T09:39:05.394Z,5.53
2018-12-14T09:41:40.048Z,5.57
2018-12-14T09:44:13.668Z,5.73
2018-12-14T09:46:47.221Z,5.53
2018-12-14T09:49:20.821Z,5.80
2018-12-14T09:51:54.505Z,5.50
2018-12-14T09:54:28.220Z,5.23
2018-12-14T09:57:01.780Z,5.83
2018-12-14T09:59:35.442Z,5.80
2018-12-14T10:02:08.905Z,5.60
2018-12-14T10:04:42.634Z,5.97
2018-12-14T10:07:16.214Z,6.23
2018-12-14T10:09:49.919Z,6.40
2018-12-14T10:12:23.489Z,5.13
2018-12-14T10:14:56.811Z,5.87
2018-12-14T10:17:30.449Z,5.73
2018-12-14T10:20:05.627Z,5.60
2018-12-14T10:22:41.660Z,5.53
2018-12-14T10:25:15.251Z,5.63
2018-12-14T10:27:48.824Z,5.90
2018-12-14T10:30:22.335Z,5.43
2018-12-14T10:32:55.963Z,5.60
2018-12-14T10:35:29.617Z,5.13
2018-12-14T10:38:03.508Z,5.50
2018-12-14T10:40:38.452Z,5.43
2018-12-14T10:43:13.283Z,5.77
2018-12-14T10:45:46.841Z,5.60
2018-12-14T10:48:20.433Z,5.30
2018-12-14T10:50:54.103Z,6.63
2018-12-14T10:53:27.569Z,6.50
2018-12-14T10:56:01.200Z,6.20
2018-12-14T10:58:34.806Z,6.90
2018-12-14T11:01:14.583Z,6.07
2018-12-14T11:03:48.024Z,6.65
2018-12-14T11:06:21.662Z,6.13
2018-12-14T11:08:55.579Z,6.67
2018-12-14T11:11:29.304Z,7.50
2018-12-14T11:14:03.274Z,6.47
2018-12-14T11:16:37.081Z,7.83
2018-12-14T11:19:10.783Z,6.60
2018-12-14T11:21:44.689Z,6.67
2018-12-14T11:24:18.169Z,6.17
2018-12-14T11:26:53.547Z,6.60
2018-12-14T11:29:27.332Z,6.40
2018-12-14T11:32:00.901Z,6.30
2018-12-14T11:34:34.514Z,6.03
2018-12-14T11:37:08.320Z,6.33
2018-12-14T11:39:42.023Z,6.92
2018-12-14T11:42:16.382Z,6.50
2018-12-14T11:44:50.024Z,7.73
2018-12-14T11:47:23.491Z,6.97
2018-12-14T11:49:57.846Z,7.57
2018-12-14T11:52:31.371Z,7.30
2018-12-14T11:55:07.197Z,7.03
2018-12-14T11:57:40.804Z,6.77
2018-12-14T12:00:14.707Z,7.47
2018-12-14T12:02:48.172Z,6.80
2018-12-14T12:05:21.806Z,7.07
2018-12-14T12:07:55.832Z,6.53
2018-12-14T12:10:29.468Z,7.20
2018-12-14T12:13:03.154Z,6.70
2018-12-14T12:15:36.681Z,6.57
2018-12-14T12:18:10.259Z,6.53
2018-12-14T12:20:43.926Z,6.80
2018-12-14T12:23:17.411Z,6.50
2018-12-14T12:25:51.461Z,5.65
2018-12-14T12:28:24.947Z,6.67
2018-12-14T12:30:58.770Z,6.90
2018-12-14T12:33:32.383Z,7.20
2018-12-14T12:36:05.839Z,6.90
2018-12-14T12:38:39.259Z,7.00
2018-12-14T12:41:12.774Z,6.97
2018-12-14T12:43:46.438Z,7.73
2018-12-14T12:46:19.934Z,6.83
2018-12-14T12:48:53.712Z,6.10
2018-12-14T12:51:27.675Z,7.13
2018-12-14T12:54:01.426Z,6.83
2018-12-14T12:56:35.635Z,6.87
2018-12-14T12:59:09.305Z,6.90
2018-12-14T13:01:43.246Z,7.93
2018-12-14T13:04:17.118Z,7.67
2018-12-14T13:06:50.821Z,6.77
2018-12-14T13:09:24.901Z,7.40
2018-12-14T13:11:58.340Z,6.67
2018-12-14T13:14:32.028Z,7.20
2018-12-14T13:17:05.722Z,7.63
2018-12-14T13:19:39.747Z,6.87
2018-12-14T13:22:13.286Z,7.60
2018-12-14T13:24:47.078Z,7.27
2018-12-14T13:27:20.753Z,6.77
2018-12-14T13:29:54.289Z,6.07
2018-12-14T13:32:28.917Z,7.47
2018-12-14T13:35:02.805Z,6.23
2018-12-14T13:37:36.981Z,6.37
2018-12-14T13:40:11.250Z,6.70
2018-12-14T13:42:44.891Z,6.87
2018-12-14T13:45:18.659Z,5.90
2018-12-14T13:47:52.210Z,6.77
2018-12-14T13:50:25.750Z,6.40
2018-12-14T13:52:59.530Z,6.77
2018-12-14T13:55:33.249Z,7.43
2018-12-14T13:58:07.269Z,7.17
2018-12-14T14:00:40.887Z,6.87
2018-12-14T14:03:14.488Z,6.77
2018-12-14T14:05:48.058Z,6.63
2018-12-14T14:08:21.555Z,7.37
2018-12-14T14:10:55.222Z,7.47
2018-12-14T14:13:28.776Z,7.23
2018-12-14T14:16:02.597Z,7.73
2018-12-14T14:18:36.678Z,7.67
2018-12-14T14:21:10.798Z,7.60
2018-12-14T14:23:44.386Z,7.30
2018-12-14T14:26:17.886Z,7.23
2018-12-14T14:28:51.587Z,7.00
2018-12-14T14:31:25.395Z,7.93
2018-12-14T14:33:58.987Z,7.80
2018-12-14T14:36:32.589Z,7.13
2018-12-14T14:39:07.558Z,7.97
2018-12-14T14:41:42.221Z,8.40
2018-12-14T14:44:15.617Z,8.00
2018-12-14T14:46:49.140Z,8.13
2018-12-14T14:49:22.649Z,7.93
2018-12-14T14:51:56.460Z,7.60
2018-12-14T14:54:29.945Z,8.77
2018-12-14T14:57:04.138Z,8.33
2018-12-14T14:59:37.878Z,7.83
2018-12-14T15:02:11.438Z,8.23
2018-12-14T15:04:44.969Z,8.27
2018-12-14T15:07:18.667Z,8.50
2018-12-14T15:09:51.995Z,8.60
2018-12-14T15:12:25.699Z,9.00
2018-12-14T15:14:59.390Z,8.70
2018-12-14T15:17:38.723Z,9.47
2018-12-14T15:20:12.622Z,8.90
2018-12-14T15:22:47.461Z,8.60
2018-12-14T15:25:21.142Z,9.00
2018-12-14T15:27:55.046Z,9.60
2018-12-14T15:30:28.868Z,10.10
2018-12-14T15:33:02.660Z,10.73
2018-12-14T15:35:36.364Z,10.60
2018-12-14T15:38:10.066Z,9.97
2018-12-14T15:40:43.778Z,10.40
2018-12-14T15:43:17.574Z,10.77
2018-12-14T15:45:52.056Z,10.53
2018-12-14T15:48:25.825Z,9.77
2018-12-14T15:50:59.408Z,10.40
2018-12-14T15:53:33.170Z,9.57
2018-12-14T15:56:09.985Z,10.50
2018-12-14T15:58:43.789Z,10.80
2018-12-14T16:01:17.702Z,10.20
2018-12-14T16:03:51.410Z,10.77
2018-12-14T16:06:25.065Z,11.20
2018-12-14T16:08:58.832Z,11.50
2018-12-14T16:11:32.726Z,9.83
2018-12-14T16:14:06.939Z,10.73
2018-12-14T16:16:40.644Z,11.80
2018-12-14T16:19:14.600Z,12.10
2018-12-14T16:21:49.623Z,12.60
2018-12-14T16:24:23.372Z,12.10
2018-12-14T16:26:57.275Z,12.83
2018-12-14T16:29:30.898Z,12.90
2018-12-14T16:32:04.629Z,12.03
2018-12-14T16:34:38.100Z,12.77
2018-12-14T16:37:11.762Z,12.20
2018-12-14T16:39:45.690Z,12.47
2018-12-14T16:42:20.137Z,13.30
2018-12-14T16:44:53.769Z,12.17
2018-12-14T16:47:27.705Z,11.80
2018-12-14T16:50:01.278Z,10.93
2018-12-14T16:52:34.880Z,12.07
2018-12-14T16:55:08.855Z,12.23
2018-12-14T16:57:42.381Z,12.45
2018-12-14T17:00:16.265Z,12.67
2018-12-14T17:02:49.893Z,12.73
2018-12-14T17:05:24.183Z,12.43
2018-12-14T17:07:59.464Z,13.10
2018-12-14T17:10:33.282Z,12.77
2018-12-14T17:13:07.136Z,11.80
2018-12-14T17:15:40.657Z,12.43
2018-12-14T17:18:14.436Z,12.87
2018-12-14T17:20:47.930Z,13.07
2018-12-14T17:23:21.820Z,12.70
2018-12-14T17:25:55.961Z,13.30
2018-12-14T17:28:29.827Z,12.27
2018-12-14T17:31:04.546Z,12.37
2018-12-14T17:33:38.115Z,13.50
2018-12-14T17:36:13.886Z,14.43
2018-12-14T17:41:28.382Z,13.07
2018-12-14T17:44:01.774Z,13.43
2018-12-14T17:46:35.619Z,13.77
2018-12-14T17:49:09.426Z,13.70
2018-12-14T17:51:43.063Z,13.13
2018-12-14T17:54:16.946Z,15.07
2018-12-14T17:56:50.631Z,15.23
2018-12-14T17:59:24.177Z,15.10
2018-12-14T18:01:58.034Z,14.57
2018-12-14T18:04:31.727Z,15.20
2018-12-14T18:07:05.388Z,14.63
2018-12-14T18:09:38.880Z,14.77
2018-12-14T18:12:12.482Z,14.20
2018-12-14T18:14:46.349Z,14.53
2018-12-14T18:17:20.152Z,16.83
2018-12-14T18:19:53.760Z,14.83
2018-12-14T18:22:27.600Z,14.87
2018-12-14T18:25:01.774Z,16.97
2018-12-14T18:27:35.309Z,15.40
2018-12-14T18:30:09.424Z,16.60
2018-12-14T18:32:42.918Z,16.47
2018-12-14T18:35:17.103Z,16.57
2018-12-14T18:37:50.647Z,16.43
2018-12-14T18:40:25.277Z,16.80
2018-12-14T18:42:59.508Z,17.67
2018-12-14T18:45:33.011Z,16.27
2018-12-14T18:48:06.957Z,17.37
2018-12-14T18:50:40.378Z,16.93
2018-12-14T18:53:14.179Z,17.70
2018-12-14T18:55:47.714Z,17.23
2018-12-14T18:58:21.292Z,18.23
2018-12-14T19:00:56.040Z,17.40
2018-12-14T19:03:29.758Z,18.53
2018-12-14T19:06:03.438Z,18.80
2018-12-14T19:08:37.309Z,17.63
2018-12-14T19:11:11.035Z,18.57
2018-12-14T19:13:44.703Z,17.47
2018-12-14T19:16:18.320Z,18.40
2018-12-14T19:18:52.776Z,18.57
2018-12-14T19:21:26.259Z,17.27
2018-12-14T19:24:00.330Z,18.03
2018-12-14T19:26:33.758Z,17.57
2018-12-14T19:29:07.597Z,18.27
2018-12-14T19:31:41.420Z,17.67
2018-12-14T19:34:15.104Z,17.07
2018-12-14T19:36:48.886Z,17.30
2018-12-14T19:39:22.688Z,17.87
2018-12-14T19:41:56.211Z,17.53
2018-12-14T19:44:30.577Z,16.70
2018-12-14T19:47:04.525Z,16.93
2018-12-14T19:49:38.505Z,17.17
2018-12-14T19:52:12.229Z,16.60
2018-12-14T19:54:45.830Z,16.87
2018-12-14T19:57:19.573Z,16.97
2018-12-14T19:59:53.211Z,16.53
2018-12-14T20:02:27.018Z,16.67
2018-12-14T20:05:00.918Z,15.90
2018-12-14T20:07:34.987Z,15.57
2018-12-14T20:10:08.742Z,16.10
2018-12-14T20:12:42.258Z,15.93
2018-12-14T20:15:16.478Z,15.37
2018-12-14T20:17:50.586Z,15.97
2018-12-14T20:20:24.182Z,16.47
2018-12-14T20:22:57.990Z,17.00
2018-12-14T20:25:31.883Z,15.40
2018-12-14T20:28:05.697Z,16.03
2018-12-14T20:30:39.125Z,16.00
2018-12-14T20:33:12.802Z,15.87
2018-12-14T20:35:46.290Z,15.17
2018-12-14T20:38:19.818Z,15.63
2018-12-14T20:40:53.305Z,15.00
2018-12-14T20:43:28.237Z,15.73
2018-12-14T20:46:01.993Z,14.47
2018-12-14T20:48:35.895Z,16.37
2018-12-14T20:51:09.629Z,15.20
2018-12-14T20:53:43.663Z,15.50
2018-12-14T20:56:17.587Z,16.27
2018-12-14T21:01:32.332Z,15.67
2018-12-14T21:04:07.608Z,15.90
2018-12-14T21:06:41.472Z,15.27
2018-12-14T21:09:15.752Z,14.97
2018-12-14T21:11:49.521Z,14.57
2018-12-14T21:14:24.221Z,14.97
2018-12-14T21:16:58.012Z,15.57
2018-12-14T21:19:32.664Z,14.97
2018-12-14T21:22:11.271Z,14.37
2018-12-14T21:24:45.086Z,12.63
2018-12-14T21:27:19.006Z,15.27
2018-12-14T21:29:53.225Z,13.43
2018-12-14T21:32:27.445Z,13.93
2018-12-14T21:35:01.324Z,13.40
2018-12-14T21:37:35.170Z,14.07
2018-12-14T21:40:08.974Z,13.77
2018-12-14T21:42:42.754Z,13.80
2018-12-14T21:45:16.557Z,13.47
2018-12-14T21:47:51.175Z,13.70
2018-12-14T21:50:24.946Z,14.03
2018-12-14T21:52:58.851Z,13.90
2018-12-14T21:55:32.695Z,12.90
2018-12-14T21:58:06.570Z,13.40
2018-12-14T22:00:40.335Z,14.53
2018-12-14T22:03:13.939Z,12.63
2018-12-14T22:05:47.611Z,13.13
2018-12-14T22:08:22.040Z,13.43
2018-12-14T22:10:55.759Z,12.20
2018-12-14T22:13:29.242Z,12.93
2018-12-14T22:16:03.142Z,13.80
2018-12-14T22:18:36.503Z,13.03
2018-12-14T22:21:10.138Z,13.27
2018-12-14T22:23:43.912Z,11.70
2018-12-14T22:26:17.562Z,13.87
2018-12-14T22:28:52.427Z,12.53
2018-12-14T22:31:26.199Z,11.80
2018-12-14T22:33:59.895Z,11.17
2018-12-14T22:36:33.490Z,11.80
2018-12-14T22:39:07.326Z,12.77
2018-12-14T22:41:42.072Z,11.07
2018-12-14T22:44:21.246Z,11.83
2018-12-14T22:46:50.994Z,11.40
2018-12-14T22:49:24.780Z,11.33
2018-12-14T22:51:58.169Z,11.70
2018-12-14T22:54:32.199Z,11.07
2018-12-14T22:57:05.939Z,11.03
2018-12-14T22:59:39.586Z,11.17
2018-12-14T23:02:13.497Z,10.80
2018-12-14T23:04:47.253Z,11.80
2018-12-14T23:07:21.009Z,11.57
2018-12-14T23:09:54.745Z,10.93
2018-12-14T23:12:28.326Z,11.17
2018-12-14T23:15:02.042Z,11.63
2018-12-14T23:17:35.682Z,11.60
2018-12-14T23:20:09.238Z,10.90
2018-12-14T23:22:43.082Z,12.33
2018-12-14T23:25:17.469Z,11.73
2018-12-14T23:27:51.114Z,11.43
2018-12-14T23:30:24.879Z,11.13
2018-12-14T23:32:58.778Z,12.33
2018-12-14T23:35:33.207Z,11.30
2018-12-14T23:38:07.430Z,12.47
2018-12-14T23:40:41.297Z,11.80
2018-12-14T23:43:14.993Z,11.67
2018-12-14T23:45:48.622Z,12.27
2018-12-14T23:48:22.404Z,12.30
2018-12-14T23:50:56.126Z,11.83
2018-12-14T23:53:29.540Z,12.70
2018-12-14T23:56:03.415Z,11.70
2018-12-14T23:58:37.243Z,11.17
